sensor_id;sensor_type;location;lat;lon;timestamp;P1;durP1;ratioP1;P2;durP2;ratioP2
6832;SDS011;3454;42.654;23.378;2023-07-09T00:01:14;7.40;;;2.20;;
6832;SDS011;3454;42.654;23.378;2023-07-09T00:03:42;4.80;;;2.28;;
6832;SDS011;3454;42.654;23.378;2023-07-09T00:06:08;6.47;;;2.45;;
6832;SDS011;3454;42.654;23.378;2023-07-09T00:08:34;2.50;;;2.22;;
6832;SDS011;3454;42.654;23.378;2023-07-09T00:10:59;10.52;;;2.75;;
6832;SDS011;3454;42.654;23.378;2023-07-09T00:13:25;4.10;;;2.47;;
6832;SDS011;3454;42.654;23.378;2023-07-09T00:15:52;3.55;;;2.58;;
6832;SDS011;3454;42.654;23.378;2023-07-09T00:18:20;5.63;;;2.38;;
6832;SDS011;3454;42.654;23.378;2023-07-09T00:20:45;3.65;;;2.50;;
6832;SDS011;3454;42.654;23.378;2023-07-09T00:23:13;3.42;;;2.28;;
6832;SDS011;3454;42.654;23.378;2023-07-09T00:25:39;8.70;;;2.25;;
6832;SDS011;3454;42.654;23.378;2023-07-09T00:28:12;3.72;;;2.55;;
6832;SDS011;3454;42.654;23.378;2023-07-09T00:30:39;3.95;;;2.17;;
6832;SDS011;3454;42.654;23.378;2023-07-09T00:33:04;3.97;;;2.20;;
6832;SDS011;3454;42.654;23.378;2023-07-09T00:35:30;6.68;;;2.55;;
6832;SDS011;3454;42.654;23.378;2023-07-09T00:37:56;3.10;;;2.15;;
6832;SDS011;3454;42.654;23.378;2023-07-09T00:40:25;3.85;;;2.10;;
6832;SDS011;3454;42.654;23.378;2023-07-09T00:42:52;6.70;;;2.33;;
6832;SDS011;3454;42.654;23.378;2023-07-09T00:45:22;4.85;;;2.58;;
6832;SDS011;3454;42.654;23.378;2023-07-09T00:50:34;5.47;;;2.00;;
6832;SDS011;3454;42.654;23.378;2023-07-09T00:53:10;3.20;;;2.20;;
6832;SDS011;3454;42.654;23.378;2023-07-09T00:55:44;7.05;;;2.72;;
6832;SDS011;3454;42.654;23.378;2023-07-09T00:58:21;2.28;;;1.65;;
6832;SDS011;3454;42.654;23.378;2023-07-09T01:00:53;3.05;;;2.30;;
6832;SDS011;3454;42.654;23.378;2023-07-09T01:03:35;4.47;;;2.45;;
6832;SDS011;3454;42.654;23.378;2023-07-09T01:06:06;4.80;;;2.88;;
6832;SDS011;3454;42.654;23.378;2023-07-09T01:08:33;2.92;;;1.90;;
6832;SDS011;3454;42.654;23.378;2023-07-09T01:11:00;4.40;;;2.40;;
6832;SDS011;3454;42.654;23.378;2023-07-09T01:13:26;3.78;;;2.30;;
6832;SDS011;3454;42.654;23.378;2023-07-09T01:15:54;3.03;;;2.03;;
6832;SDS011;3454;42.654;23.378;2023-07-09T01:18:21;2.85;;;2.42;;
6832;SDS011;3454;42.654;23.378;2023-07-09T01:20:49;7.80;;;2.53;;
6832;SDS011;3454;42.654;23.378;2023-07-09T01:23:17;4.57;;;2.13;;
6832;SDS011;3454;42.654;23.378;2023-07-09T01:25:46;5.70;;;2.50;;
6832;SDS011;3454;42.654;23.378;2023-07-09T01:28:17;4.95;;;2.45;;
6832;SDS011;3454;42.654;23.378;2023-07-09T01:30:43;3.47;;;2.47;;
6832;SDS011;3454;42.654;23.378;2023-07-09T01:33:09;3.88;;;2.75;;
6832;SDS011;3454;42.654;23.378;2023-07-09T01:35:36;2.65;;;2.25;;
6832;SDS011;3454;42.654;23.378;2023-07-09T01:38:06;6.40;;;2.70;;
6832;SDS011;3454;42.654;23.378;2023-07-09T01:40:32;3.25;;;2.25;;
6832;SDS011;3454;42.654;23.378;2023-07-09T01:42:58;5.40;;;2.45;;
6832;SDS011;3454;42.654;23.378;2023-07-09T01:45:24;4.40;;;2.20;;
6832;SDS011;3454;42.654;23.378;2023-07-09T01:47:50;5.53;;;2.42;;
6832;SDS011;3454;42.654;23.378;2023-07-09T01:50:18;5.22;;;2.30;;
6832;SDS011;3454;42.654;23.378;2023-07-09T01:52:44;3.05;;;2.55;;
6832;SDS011;3454;42.654;23.378;2023-07-09T01:55:12;4.35;;;2.80;;
6832;SDS011;3454;42.654;23.378;2023-07-09T01:57:38;5.40;;;3.00;;
6832;SDS011;3454;42.654;23.378;2023-07-09T02:00:07;5.28;;;3.75;;
6832;SDS011;3454;42.654;23.378;2023-07-09T02:02:35;6.95;;;4.07;;
6832;SDS011;3454;42.654;23.378;2023-07-09T02:05:00;7.57;;;4.50;;
6832;SDS011;3454;42.654;23.378;2023-07-09T02:07:27;10.63;;;4.75;;
6832;SDS011;3454;42.654;23.378;2023-07-09T02:09:53;7.35;;;4.70;;
6832;SDS011;3454;42.654;23.378;2023-07-09T02:12:18;7.35;;;4.30;;
6832;SDS011;3454;42.654;23.378;2023-07-09T02:14:45;8.80;;;4.20;;
6832;SDS011;3454;42.654;23.378;2023-07-09T02:17:11;8.45;;;4.93;;
6832;SDS011;3454;42.654;23.378;2023-07-09T02:19:38;7.63;;;4.68;;
6832;SDS011;3454;42.654;23.378;2023-07-09T02:22:04;8.70;;;4.68;;
6832;SDS011;3454;42.654;23.378;2023-07-09T02:24:30;10.80;;;3.92;;
6832;SDS011;3454;42.654;23.378;2023-07-09T02:26:57;5.18;;;3.75;;
6832;SDS011;3454;42.654;23.378;2023-07-09T02:29:24;5.82;;;3.60;;
6832;SDS011;3454;42.654;23.378;2023-07-09T02:31:50;7.35;;;3.40;;
6832;SDS011;3454;42.654;23.378;2023-07-09T02:34:17;6.10;;;3.35;;
6832;SDS011;3454;42.654;23.378;2023-07-09T02:36:43;5.50;;;3.38;;
6832;SDS011;3454;42.654;23.378;2023-07-09T02:39:10;4.80;;;3.13;;
6832;SDS011;3454;42.654;23.378;2023-07-09T02:41:36;5.25;;;3.30;;
6832;SDS011;3454;42.654;23.378;2023-07-09T02:44:02;3.33;;;2.63;;
6832;SDS011;3454;42.654;23.378;2023-07-09T02:46:28;6.88;;;3.15;;
6832;SDS011;3454;42.654;23.378;2023-07-09T02:48:54;5.43;;;2.92;;
6832;SDS011;3454;42.654;23.378;2023-07-09T02:51:20;6.10;;;3.40;;
6832;SDS011;3454;42.654;23.378;2023-07-09T02:53:45;6.18;;;3.60;;
6832;SDS011;3454;42.654;23.378;2023-07-09T02:56:11;4.30;;;3.13;;
6832;SDS011;3454;42.654;23.378;2023-07-09T02:58:36;4.88;;;3.78;;
6832;SDS011;3454;42.654;23.378;2023-07-09T03:01:02;7.75;;;4.50;;
6832;SDS011;3454;42.654;23.378;2023-07-09T03:03:28;4.15;;;3.58;;
6832;SDS011;3454;42.654;23.378;2023-07-09T03:05:53;4.15;;;3.15;;
6832;SDS011;3454;42.654;23.378;2023-07-09T03:08:19;9.07;;;3.78;;
6832;SDS011;3454;42.654;23.378;2023-07-09T03:10:44;4.93;;;3.45;;
6832;SDS011;3454;42.654;23.378;2023-07-09T03:13:10;5.70;;;3.92;;
6832;SDS011;3454;42.654;23.378;2023-07-09T03:15:35;5.45;;;3.58;;
6832;SDS011;3454;42.654;23.378;2023-07-09T03:18:00;6.35;;;3.47;;
6832;SDS011;3454;42.654;23.378;2023-07-09T03:20:26;6.38;;;4.10;;
6832;SDS011;3454;42.654;23.378;2023-07-09T03:22:52;5.40;;;3.28;;
6832;SDS011;3454;42.654;23.378;2023-07-09T03:25:18;4.82;;;3.80;;
6832;SDS011;3454;42.654;23.378;2023-07-09T03:27:47;7.90;;;3.72;;
6832;SDS011;3454;42.654;23.378;2023-07-09T03:30:13;4.47;;;3.50;;
6832;SDS011;3454;42.654;23.378;2023-07-09T03:32:39;6.18;;;3.60;;
6832;SDS011;3454;42.654;23.378;2023-07-09T03:35:04;4.78;;;3.40;;
6832;SDS011;3454;42.654;23.378;2023-07-09T03:37:30;7.22;;;3.95;;
6832;SDS011;3454;42.654;23.378;2023-07-09T03:39:55;11.90;;;4.18;;
6832;SDS011;3454;42.654;23.378;2023-07-09T03:42:20;5.97;;;3.75;;
6832;SDS011;3454;42.654;23.378;2023-07-09T03:44:47;5.72;;;2.90;;
6832;SDS011;3454;42.654;23.378;2023-07-09T03:47:12;7.28;;;3.70;;
6832;SDS011;3454;42.654;23.378;2023-07-09T03:49:38;5.60;;;3.00;;
6832;SDS011;3454;42.654;23.378;2023-07-09T03:52:06;4.78;;;3.40;;
6832;SDS011;3454;42.654;23.378;2023-07-09T03:54:33;4.68;;;3.20;;
6832;SDS011;3454;42.654;23.378;2023-07-09T03:56:58;6.63;;;3.53;;
6832;SDS011;3454;42.654;23.378;2023-07-09T03:59:24;5.88;;;3.38;;
6832;SDS011;3454;42.654;23.378;2023-07-09T04:01:49;5.47;;;3.45;;
6832;SDS011;3454;42.654;23.378;2023-07-09T04:04:15;6.40;;;3.35;;
6832;SDS011;3454;42.654;23.378;2023-07-09T04:06:45;4.63;;;3.55;;
6832;SDS011;3454;42.654;23.378;2023-07-09T04:09:10;6.70;;;3.50;;
6832;SDS011;3454;42.654;23.378;2023-07-09T04:11:36;4.68;;;3.55;;
6832;SDS011;3454;42.654;23.378;2023-07-09T04:14:01;6.28;;;4.22;;
6832;SDS011;3454;42.654;23.378;2023-07-09T04:16:27;7.72;;;3.85;;
6832;SDS011;3454;42.654;23.378;2023-07-09T04:18:52;5.18;;;3.63;;
6832;SDS011;3454;42.654;23.378;2023-07-09T04:21:17;7.25;;;4.07;;
6832;SDS011;3454;42.654;23.378;2023-07-09T04:23:43;4.63;;;3.42;;
6832;SDS011;3454;42.654;23.378;2023-07-09T04:26:11;4.40;;;3.10;;
6832;SDS011;3454;42.654;23.378;2023-07-09T04:28:38;6.97;;;3.70;;
6832;SDS011;3454;42.654;23.378;2023-07-09T04:31:04;6.60;;;3.65;;
6832;SDS011;3454;42.654;23.378;2023-07-09T04:33:29;5.25;;;3.60;;
6832;SDS011;3454;42.654;23.378;2023-07-09T04:35:55;6.72;;;4.10;;
6832;SDS011;3454;42.654;23.378;2023-07-09T04:38:20;4.72;;;3.47;;
6832;SDS011;3454;42.654;23.378;2023-07-09T04:40:46;8.23;;;4.72;;
6832;SDS011;3454;42.654;23.378;2023-07-09T04:43:12;9.35;;;3.78;;
6832;SDS011;3454;42.654;23.378;2023-07-09T04:45:37;8.65;;;4.22;;
6832;SDS011;3454;42.654;23.378;2023-07-09T04:48:03;5.85;;;3.78;;
6832;SDS011;3454;42.654;23.378;2023-07-09T04:50:28;5.80;;;4.32;;
6832;SDS011;3454;42.654;23.378;2023-07-09T04:52:54;8.00;;;4.47;;
6832;SDS011;3454;42.654;23.378;2023-07-09T04:55:19;5.57;;;4.22;;
6832;SDS011;3454;42.654;23.378;2023-07-09T04:57:45;7.32;;;4.88;;
6832;SDS011;3454;42.654;23.378;2023-07-09T05:00:11;8.48;;;4.63;;
6832;SDS011;3454;42.654;23.378;2023-07-09T05:02:37;6.15;;;4.38;;
6832;SDS011;3454;42.654;23.378;2023-07-09T05:05:02;5.57;;;4.20;;
6832;SDS011;3454;42.654;23.378;2023-07-09T05:07:28;5.80;;;4.60;;
6832;SDS011;3454;42.654;23.378;2023-07-09T05:09:54;6.07;;;4.60;;
6832;SDS011;3454;42.654;23.378;2023-07-09T05:12:19;5.60;;;4.63;;
6832;SDS011;3454;42.654;23.378;2023-07-09T05:14:46;9.10;;;5.85;;
6832;SDS011;3454;42.654;23.378;2023-07-09T05:17:11;8.23;;;4.65;;
6832;SDS011;3454;42.654;23.378;2023-07-09T05:19:36;8.63;;;5.18;;
6832;SDS011;3454;42.654;23.378;2023-07-09T05:22:02;11.70;;;5.07;;
6832;SDS011;3454;42.654;23.378;2023-07-09T05:24:28;6.22;;;4.18;;
6832;SDS011;3454;42.654;23.378;2023-07-09T05:26:54;9.40;;;3.85;;
6832;SDS011;3454;42.654;23.378;2023-07-09T05:29:20;5.82;;;4.25;;
6832;SDS011;3454;42.654;23.378;2023-07-09T05:31:45;6.55;;;4.47;;
6832;SDS011;3454;42.654;23.378;2023-07-09T05:34:10;5.85;;;4.00;;
6832;SDS011;3454;42.654;23.378;2023-07-09T05:36:36;8.40;;;5.07;;
6832;SDS011;3454;42.654;23.378;2023-07-09T05:39:01;6.65;;;4.35;;
6832;SDS011;3454;42.654;23.378;2023-07-09T05:41:27;5.32;;;4.60;;
6832;SDS011;3454;42.654;23.378;2023-07-09T05:43:52;9.45;;;5.32;;
6832;SDS011;3454;42.654;23.378;2023-07-09T05:46:18;10.07;;;5.10;;
6832;SDS011;3454;42.654;23.378;2023-07-09T05:48:44;7.90;;;4.25;;
6832;SDS011;3454;42.654;23.378;2023-07-09T05:51:10;9.00;;;5.80;;
6832;SDS011;3454;42.654;23.378;2023-07-09T05:53:35;6.20;;;3.55;;
6832;SDS011;3454;42.654;23.378;2023-07-09T05:56:00;6.07;;;3.70;;
6832;SDS011;3454;42.654;23.378;2023-07-09T05:58:26;8.73;;;4.80;;
6832;SDS011;3454;42.654;23.378;2023-07-09T06:00:52;7.90;;;3.40;;
6832;SDS011;3454;42.654;23.378;2023-07-09T06:03:19;8.02;;;3.63;;
6832;SDS011;3454;42.654;23.378;2023-07-09T06:05:47;6.20;;;3.53;;
6832;SDS011;3454;42.654;23.378;2023-07-09T06:08:15;5.13;;;3.00;;
6832;SDS011;3454;42.654;23.378;2023-07-09T06:10:49;12.15;;;5.22;;
6832;SDS011;3454;42.654;23.378;2023-07-09T06:13:22;5.82;;;3.65;;
6832;SDS011;3454;42.654;23.378;2023-07-09T06:15:48;9.68;;;3.47;;
6832;SDS011;3454;42.654;23.378;2023-07-09T06:18:15;7.20;;;3.00;;
6832;SDS011;3454;42.654;23.378;2023-07-09T06:20:40;6.40;;;3.63;;
6832;SDS011;3454;42.654;23.378;2023-07-09T06:23:06;3.47;;;2.80;;
6832;SDS011;3454;42.654;23.378;2023-07-09T06:25:32;4.47;;;3.33;;
6832;SDS011;3454;42.654;23.378;2023-07-09T06:27:57;5.20;;;3.47;;
6832;SDS011;3454;42.654;23.378;2023-07-09T06:30:23;5.55;;;3.10;;
6832;SDS011;3454;42.654;23.378;2023-07-09T06:32:48;6.50;;;3.30;;
6832;SDS011;3454;42.654;23.378;2023-07-09T06:35:13;8.50;;;3.38;;
6832;SDS011;3454;42.654;23.378;2023-07-09T06:37:39;3.20;;;2.90;;
6832;SDS011;3454;42.654;23.378;2023-07-09T06:40:04;5.57;;;3.28;;
6832;SDS011;3454;42.654;23.378;2023-07-09T06:42:33;5.22;;;2.90;;
6832;SDS011;3454;42.654;23.378;2023-07-09T06:44:59;4.47;;;3.05;;
6832;SDS011;3454;42.654;23.378;2023-07-09T06:47:24;4.40;;;3.00;;
6832;SDS011;3454;42.654;23.378;2023-07-09T06:49:49;4.05;;;3.22;;
6832;SDS011;3454;42.654;23.378;2023-07-09T06:52:15;6.68;;;3.03;;
6832;SDS011;3454;42.654;23.378;2023-07-09T06:54:41;4.20;;;2.97;;
6832;SDS011;3454;42.654;23.378;2023-07-09T06:57:06;4.43;;;2.85;;
6832;SDS011;3454;42.654;23.378;2023-07-09T06:59:32;7.07;;;2.88;;
6832;SDS011;3454;42.654;23.378;2023-07-09T07:01:57;3.35;;;2.83;;
6832;SDS011;3454;42.654;23.378;2023-07-09T07:04:25;4.38;;;2.47;;
6832;SDS011;3454;42.654;23.378;2023-07-09T07:06:51;9.80;;;2.95;;
6832;SDS011;3454;42.654;23.378;2023-07-09T07:09:17;3.05;;;2.55;;
6832;SDS011;3454;42.654;23.378;2023-07-09T07:11:42;6.63;;;3.20;;
6832;SDS011;3454;42.654;23.378;2023-07-09T07:14:07;5.07;;;2.75;;
6832;SDS011;3454;42.654;23.378;2023-07-09T07:16:33;4.53;;;2.90;;
6832;SDS011;3454;42.654;23.378;2023-07-09T07:18:58;6.95;;;3.13;;
6832;SDS011;3454;42.654;23.378;2023-07-09T07:21:31;6.70;;;2.70;;
6832;SDS011;3454;42.654;23.378;2023-07-09T07:23:56;3.90;;;3.13;;
6832;SDS011;3454;42.654;23.378;2023-07-09T07:26:22;3.95;;;2.72;;
6832;SDS011;3454;42.654;23.378;2023-07-09T07:28:47;4.10;;;3.17;;
6832;SDS011;3454;42.654;23.378;2023-07-09T07:31:13;6.47;;;3.55;;
6832;SDS011;3454;42.654;23.378;2023-07-09T07:33:39;7.43;;;4.50;;
6832;SDS011;3454;42.654;23.378;2023-07-09T07:36:06;7.05;;;4.40;;
6832;SDS011;3454;42.654;23.378;2023-07-09T07:38:33;7.35;;;4.90;;
6832;SDS011;3454;42.654;23.378;2023-07-09T07:41:00;6.18;;;3.38;;
6832;SDS011;3454;42.654;23.378;2023-07-09T07:43:26;6.90;;;3.65;;
6832;SDS011;3454;42.654;23.378;2023-07-09T07:45:51;7.15;;;3.33;;
6832;SDS011;3454;42.654;23.378;2023-07-09T07:48:17;4.40;;;2.80;;
6832;SDS011;3454;42.654;23.378;2023-07-09T07:50:42;5.05;;;3.30;;
6832;SDS011;3454;42.654;23.378;2023-07-09T07:53:11;6.63;;;3.53;;
6832;SDS011;3454;42.654;23.378;2023-07-09T07:55:36;6.07;;;3.10;;
6832;SDS011;3454;42.654;23.378;2023-07-09T07:58:03;4.05;;;2.92;;
6832;SDS011;3454;42.654;23.378;2023-07-09T08:00:29;7.95;;;3.38;;
6832;SDS011;3454;42.654;23.378;2023-07-09T08:02:54;5.50;;;3.50;;
6832;SDS011;3454;42.654;23.378;2023-07-09T08:05:20;6.22;;;3.25;;
6832;SDS011;3454;42.654;23.378;2023-07-09T08:07:46;3.97;;;2.90;;
6832;SDS011;3454;42.654;23.378;2023-07-09T08:10:11;4.10;;;2.90;;
6832;SDS011;3454;42.654;23.378;2023-07-09T08:12:38;3.60;;;2.83;;
6832;SDS011;3454;42.654;23.378;2023-07-09T08:15:04;3.20;;;2.90;;
6832;SDS011;3454;42.654;23.378;2023-07-09T08:17:31;4.63;;;3.10;;
6832;SDS011;3454;42.654;23.378;2023-07-09T08:19:56;4.85;;;3.08;;
6832;SDS011;3454;42.654;23.378;2023-07-09T08:22:22;3.05;;;2.50;;
6832;SDS011;3454;42.654;23.378;2023-07-09T08:24:48;7.10;;;3.05;;
6832;SDS011;3454;42.654;23.378;2023-07-09T08:27:16;4.97;;;2.92;;
6832;SDS011;3454;42.654;23.378;2023-07-09T08:29:43;9.70;;;2.60;;
6832;SDS011;3454;42.654;23.378;2023-07-09T08:32:09;3.47;;;3.15;;
6832;SDS011;3454;42.654;23.378;2023-07-09T08:34:37;6.55;;;3.38;;
6832;SDS011;3454;42.654;23.378;2023-07-09T08:37:04;5.93;;;3.28;;
6832;SDS011;3454;42.654;23.378;2023-07-09T08:39:31;6.53;;;3.55;;
6832;SDS011;3454;42.654;23.378;2023-07-09T08:42:00;5.38;;;3.05;;
6832;SDS011;3454;42.654;23.378;2023-07-09T08:47:42;6.90;;;3.22;;
6832;SDS011;3454;42.654;23.378;2023-07-09T08:50:45;6.38;;;3.80;;
6832;SDS011;3454;42.654;23.378;2023-07-09T08:53:36;5.07;;;4.30;;
6832;SDS011;3454;42.654;23.378;2023-07-09T08:56:08;6.68;;;4.30;;
6832;SDS011;3454;42.654;23.378;2023-07-09T08:58:34;4.43;;;4.03;;
6832;SDS011;3454;42.654;23.378;2023-07-09T09:01:03;8.52;;;3.80;;
6832;SDS011;3454;42.654;23.378;2023-07-09T09:03:34;6.22;;;3.80;;
6832;SDS011;3454;42.654;23.378;2023-07-09T09:06:11;6.07;;;3.95;;
6832;SDS011;3454;42.654;23.378;2023-07-09T09:14:17;8.88;;;3.95;;
6832;SDS011;3454;42.654;23.378;2023-07-09T09:16:44;5.85;;;4.25;;
6832;SDS011;3454;42.654;23.378;2023-07-09T09:19:18;6.85;;;4.22;;
6832;SDS011;3454;42.654;23.378;2023-07-09T09:21:48;4.85;;;4.15;;
6832;SDS011;3454;42.654;23.378;2023-07-09T09:24:19;5.43;;;3.83;;
6832;SDS011;3454;42.654;23.378;2023-07-09T09:26:53;4.78;;;3.25;;
6832;SDS011;3454;42.654;23.378;2023-07-09T09:29:23;4.75;;;4.32;;
6832;SDS011;3454;42.654;23.378;2023-07-09T09:31:50;5.50;;;4.03;;
6832;SDS011;3454;42.654;23.378;2023-07-09T09:34:24;5.65;;;3.78;;
6832;SDS011;3454;42.654;23.378;2023-07-09T09:36:52;5.32;;;3.88;;
6832;SDS011;3454;42.654;23.378;2023-07-09T09:39:18;5.85;;;3.65;;
6832;SDS011;3454;42.654;23.378;2023-07-09T09:41:44;6.32;;;3.72;;
6832;SDS011;3454;42.654;23.378;2023-07-09T09:44:19;6.47;;;3.40;;
6832;SDS011;3454;42.654;23.378;2023-07-09T09:46:47;6.53;;;3.95;;
6832;SDS011;3454;42.654;23.378;2023-07-09T09:49:14;3.75;;;3.25;;
6832;SDS011;3454;42.654;23.378;2023-07-09T09:51:40;6.32;;;3.50;;
6832;SDS011;3454;42.654;23.378;2023-07-09T09:54:12;4.07;;;3.67;;
6832;SDS011;3454;42.654;23.378;2023-07-09T09:56:43;5.25;;;3.38;;
6832;SDS011;3454;42.654;23.378;2023-07-09T09:59:25;3.92;;;3.53;;
6832;SDS011;3454;42.654;23.378;2023-07-09T10:01:59;7.45;;;3.45;;
6832;SDS011;3454;42.654;23.378;2023-07-09T10:04:26;3.33;;;2.88;;
6832;SDS011;3454;42.654;23.378;2023-07-09T10:06:54;4.20;;;3.80;;
6832;SDS011;3454;42.654;23.378;2023-07-09T10:23:26;9.55;;;5.28;;
6832;SDS011;3454;42.654;23.378;2023-07-09T10:26:39;6.07;;;3.33;;
6832;SDS011;3454;42.654;23.378;2023-07-09T10:40:41;4.28;;;3.17;;
6832;SDS011;3454;42.654;23.378;2023-07-09T10:43:12;4.35;;;3.33;;
6832;SDS011;3454;42.654;23.378;2023-07-09T10:45:48;4.45;;;3.15;;
6832;SDS011;3454;42.654;23.378;2023-07-09T10:51:00;5.57;;;3.60;;
6832;SDS011;3454;42.654;23.378;2023-07-09T11:00:55;4.18;;;3.28;;
6832;SDS011;3454;42.654;23.378;2023-07-09T11:03:24;3.10;;;2.80;;
6832;SDS011;3454;42.654;23.378;2023-07-09T11:05:53;5.30;;;3.35;;
6832;SDS011;3454;42.654;23.378;2023-07-09T11:08:20;4.68;;;3.20;;
6832;SDS011;3454;42.654;23.378;2023-07-09T11:10:52;4.05;;;3.15;;
6832;SDS011;3454;42.654;23.378;2023-07-09T11:16:02;4.25;;;3.20;;
6832;SDS011;3454;42.654;23.378;2023-07-09T11:18:31;4.28;;;2.78;;
6832;SDS011;3454;42.654;23.378;2023-07-09T11:21:06;3.50;;;2.97;;
6832;SDS011;3454;42.654;23.378;2023-07-09T11:23:49;7.28;;;3.28;;
6832;SDS011;3454;42.654;23.378;2023-07-09T11:28:54;4.47;;;3.05;;
6832;SDS011;3454;42.654;23.378;2023-07-09T11:31:41;4.18;;;3.13;;
6832;SDS011;3454;42.654;23.378;2023-07-09T11:34:16;3.65;;;2.90;;
6832;SDS011;3454;42.654;23.378;2023-07-09T11:39:39;3.65;;;2.70;;
6832;SDS011;3454;42.654;23.378;2023-07-09T11:44:54;3.70;;;2.70;;
6832;SDS011;3454;42.654;23.378;2023-07-09T11:55:45;4.70;;;2.78;;
6832;SDS011;3454;42.654;23.378;2023-07-09T11:58:15;4.72;;;2.75;;
6832;SDS011;3454;42.654;23.378;2023-07-09T12:00:45;3.95;;;2.60;;
6832;SDS011;3454;42.654;23.378;2023-07-09T12:03:29;4.38;;;2.75;;
6832;SDS011;3454;42.654;23.378;2023-07-09T12:06:04;3.22;;;2.70;;
6832;SDS011;3454;42.654;23.378;2023-07-09T12:08:39;2.97;;;2.70;;
6832;SDS011;3454;42.654;23.378;2023-07-09T12:11:17;3.65;;;3.03;;
6832;SDS011;3454;42.654;23.378;2023-07-09T12:13:53;5.95;;;2.88;;
6832;SDS011;3454;42.654;23.378;2023-07-09T12:16:25;4.00;;;2.60;;
6832;SDS011;3454;42.654;23.378;2023-07-09T12:19:11;3.58;;;2.90;;
6832;SDS011;3454;42.654;23.378;2023-07-09T12:21:40;2.97;;;2.58;;
6832;SDS011;3454;42.654;23.378;2023-07-09T12:26:51;6.55;;;2.70;;
6832;SDS011;3454;42.654;23.378;2023-07-09T12:29:23;6.10;;;2.67;;
6832;SDS011;3454;42.654;23.378;2023-07-09T12:31:55;4.25;;;2.70;;
6832;SDS011;3454;42.654;23.378;2023-07-09T12:34:21;2.95;;;2.63;;
6832;SDS011;3454;42.654;23.378;2023-07-09T12:36:48;7.03;;;3.00;;
6832;SDS011;3454;42.654;23.378;2023-07-09T12:39:15;4.20;;;2.75;;
6832;SDS011;3454;42.654;23.378;2023-07-09T12:41:49;3.38;;;2.70;;
6832;SDS011;3454;42.654;23.378;2023-07-09T12:44:17;5.38;;;2.80;;
6832;SDS011;3454;42.654;23.378;2023-07-09T12:46:45;3.55;;;2.72;;
6832;SDS011;3454;42.654;23.378;2023-07-09T12:49:20;4.82;;;2.60;;
6832;SDS011;3454;42.654;23.378;2023-07-09T12:51:53;4.10;;;2.75;;
6832;SDS011;3454;42.654;23.378;2023-07-09T12:54:20;4.05;;;2.65;;
6832;SDS011;3454;42.654;23.378;2023-07-09T12:56:46;4.60;;;3.17;;
6832;SDS011;3454;42.654;23.378;2023-07-09T12:59:18;3.20;;;2.90;;
6832;SDS011;3454;42.654;23.378;2023-07-09T13:01:49;6.30;;;3.00;;
6832;SDS011;3454;42.654;23.378;2023-07-09T13:04:19;5.30;;;2.70;;
6832;SDS011;3454;42.654;23.378;2023-07-09T13:06:44;7.50;;;2.42;;
6832;SDS011;3454;42.654;23.378;2023-07-09T13:09:20;4.18;;;3.03;;
6832;SDS011;3454;42.654;23.378;2023-07-09T13:11:48;4.65;;;2.45;;
6832;SDS011;3454;42.654;23.378;2023-07-09T13:14:20;3.97;;;2.70;;
6832;SDS011;3454;42.654;23.378;2023-07-09T13:16:49;3.30;;;2.80;;
6832;SDS011;3454;42.654;23.378;2023-07-09T13:19:15;2.75;;;2.42;;
6832;SDS011;3454;42.654;23.378;2023-07-09T13:21:41;3.78;;;2.45;;
6832;SDS011;3454;42.654;23.378;2023-07-09T13:24:17;4.85;;;2.70;;
6832;SDS011;3454;42.654;23.378;2023-07-09T13:26:49;4.70;;;2.63;;
6832;SDS011;3454;42.654;23.378;2023-07-09T13:29:15;3.25;;;2.70;;
6832;SDS011;3454;42.654;23.378;2023-07-09T13:31:46;6.15;;;2.97;;
6832;SDS011;3454;42.654;23.378;2023-07-09T13:34:24;3.50;;;2.55;;
6832;SDS011;3454;42.654;23.378;2023-07-09T13:36:53;4.65;;;2.38;;
6832;SDS011;3454;42.654;23.378;2023-07-09T13:39:21;3.72;;;2.65;;
6832;SDS011;3454;42.654;23.378;2023-07-09T13:41:48;6.60;;;3.28;;
6832;SDS011;3454;42.654;23.378;2023-07-09T13:44:25;5.57;;;2.88;;
6832;SDS011;3454;42.654;23.378;2023-07-09T13:46:53;7.85;;;3.05;;
6832;SDS011;3454;42.654;23.378;2023-07-09T13:49:20;3.95;;;2.83;;
6832;SDS011;3454;42.654;23.378;2023-07-09T13:51:48;4.88;;;2.70;;
6832;SDS011;3454;42.654;23.378;2023-07-09T13:54:17;3.75;;;2.97;;
6832;SDS011;3454;42.654;23.378;2023-07-09T13:56:45;4.32;;;3.05;;
6832;SDS011;3454;42.654;23.378;2023-07-09T13:59:15;4.45;;;2.80;;
6832;SDS011;3454;42.654;23.378;2023-07-09T14:01:42;4.88;;;2.67;;
6832;SDS011;3454;42.654;23.378;2023-07-09T14:04:08;4.43;;;3.25;;
6832;SDS011;3454;42.654;23.378;2023-07-09T14:06:36;3.38;;;2.67;;
6832;SDS011;3454;42.654;23.378;2023-07-09T14:09:02;2.78;;;2.53;;
6832;SDS011;3454;42.654;23.378;2023-07-09T14:11:28;5.15;;;2.80;;
6832;SDS011;3454;42.654;23.378;2023-07-09T14:13:54;4.78;;;3.00;;
6832;SDS011;3454;42.654;23.378;2023-07-09T14:16:20;4.53;;;2.80;;
6832;SDS011;3454;42.654;23.378;2023-07-09T14:18:50;7.18;;;2.80;;
6832;SDS011;3454;42.654;23.378;2023-07-09T14:21:20;4.28;;;2.92;;
6832;SDS011;3454;42.654;23.378;2023-07-09T14:23:48;3.40;;;2.67;;
6832;SDS011;3454;42.654;23.378;2023-07-09T14:26:14;4.95;;;2.83;;
6832;SDS011;3454;42.654;23.378;2023-07-09T14:28:39;4.45;;;2.67;;
6832;SDS011;3454;42.654;23.378;2023-07-09T14:31:18;3.17;;;2.72;;
6832;SDS011;3454;42.654;23.378;2023-07-09T14:33:48;4.00;;;2.67;;
6832;SDS011;3454;42.654;23.378;2023-07-09T14:36:13;5.80;;;3.25;;
6832;SDS011;3454;42.654;23.378;2023-07-09T14:38:39;3.25;;;2.72;;
6832;SDS011;3454;42.654;23.378;2023-07-09T14:41:08;4.10;;;2.80;;
6832;SDS011;3454;42.654;23.378;2023-07-09T14:43:48;5.28;;;2.85;;
6832;SDS011;3454;42.654;23.378;2023-07-09T14:46:13;5.60;;;3.25;;
6832;SDS011;3454;42.654;23.378;2023-07-09T14:48:39;2.92;;;2.67;;
6832;SDS011;3454;42.654;23.378;2023-07-09T14:51:14;5.45;;;2.90;;
6832;SDS011;3454;42.654;23.378;2023-07-09T14:53:40;3.08;;;2.80;;
6832;SDS011;3454;42.654;23.378;2023-07-09T14:56:06;5.22;;;2.80;;
6832;SDS011;3454;42.654;23.378;2023-07-09T14:58:32;3.58;;;2.25;;
6832;SDS011;3454;42.654;23.378;2023-07-09T15:00:57;3.45;;;2.92;;
6832;SDS011;3454;42.654;23.378;2023-07-09T15:03:24;6.78;;;2.95;;
6832;SDS011;3454;42.654;23.378;2023-07-09T15:05:51;5.63;;;2.85;;
6832;SDS011;3454;42.654;23.378;2023-07-09T15:08:20;5.95;;;2.80;;
6832;SDS011;3454;42.654;23.378;2023-07-09T15:10:48;4.13;;;2.63;;
6832;SDS011;3454;42.654;23.378;2023-07-09T15:13:21;3.88;;;3.10;;
6832;SDS011;3454;42.654;23.378;2023-07-09T15:15:49;3.25;;;2.13;;
6832;SDS011;3454;42.654;23.378;2023-07-09T15:18:15;3.20;;;2.65;;
6832;SDS011;3454;42.654;23.378;2023-07-09T15:20:44;3.88;;;3.13;;
6832;SDS011;3454;42.654;23.378;2023-07-09T15:23:14;7.05;;;2.50;;
6832;SDS011;3454;42.654;23.378;2023-07-09T15:25:39;3.13;;;2.78;;
6832;SDS011;3454;42.654;23.378;2023-07-09T15:28:05;6.28;;;2.72;;
6832;SDS011;3454;42.654;23.378;2023-07-09T15:30:30;3.08;;;2.50;;
6832;SDS011;3454;42.654;23.378;2023-07-09T15:32:57;5.60;;;2.92;;
6832;SDS011;3454;42.654;23.378;2023-07-09T15:35:25;7.68;;;2.80;;
6832;SDS011;3454;42.654;23.378;2023-07-09T15:37:55;2.78;;;2.35;;
6832;SDS011;3454;42.654;23.378;2023-07-09T15:40:22;5.00;;;3.13;;
6832;SDS011;3454;42.654;23.378;2023-07-09T15:42:51;3.55;;;2.92;;
6832;SDS011;3454;42.654;23.378;2023-07-09T15:45:19;7.88;;;2.63;;
6832;SDS011;3454;42.654;23.378;2023-07-09T15:47:45;4.20;;;3.05;;
6832;SDS011;3454;42.654;23.378;2023-07-09T15:50:16;3.63;;;2.90;;
6832;SDS011;3454;42.654;23.378;2023-07-09T15:52:45;2.50;;;2.30;;
6832;SDS011;3454;42.654;23.378;2023-07-09T15:55:21;3.13;;;2.83;;
6832;SDS011;3454;42.654;23.378;2023-07-09T15:57:48;4.88;;;3.28;;
6832;SDS011;3454;42.654;23.378;2023-07-09T16:00:20;3.67;;;2.63;;
6832;SDS011;3454;42.654;23.378;2023-07-09T16:02:48;3.40;;;2.63;;
6832;SDS011;3454;42.654;23.378;2023-07-09T16:05:24;6.28;;;3.25;;
6832;SDS011;3454;42.654;23.378;2023-07-09T16:07:52;9.05;;;3.05;;
6832;SDS011;3454;42.654;23.378;2023-07-09T16:10:20;3.15;;;2.88;;
6832;SDS011;3454;42.654;23.378;2023-07-09T16:12:47;5.20;;;3.47;;
6832;SDS011;3454;42.654;23.378;2023-07-09T16:15:15;4.20;;;3.33;;